sensor_id;sensor_type;location;lat;lon;timestamp;pressure;altitude;pressure_sealevel;temperature;humidity
16481;BME280;44634;54.110;12.138;2022-11-20T00:00:54;100553.72;;;5.67;100.00
16481;BME280;44634;54.110;12.138;2022-11-20T00:03:22;100564.31;;;5.29;100.00
16481;BME280;44634;54.110;12.138;2022-11-20T00:05:50;100574.72;;;5.18;100.00
16481;BME280;44634;54.110;12.138;2022-11-20T00:08:18;100560.13;;;5.27;100.00
16481;BME280;44634;54.110;12.138;2022-11-20T00:10:46;100565.09;;;5.55;100.00
16481;BME280;44634;54.110;12.138;2022-11-20T00:13:15;100566.91;;;5.42;100.00
16481;BME280;44634;54.110;12.138;2022-11-20T00:15:42;100567.56;;;5.70;100.00
16481;BME280;44634;54.110;12.138;2022-11-20T00:18:10;100568.22;;;5.24;100.00
16481;BME280;44634;54.110;12.138;2022-11-20T00:20:38;100562.00;;;5.37;100.00
16481;BME280;44634;54.110;12.138;2022-11-20T00:23:06;100571.94;;;5.82;100.00
16481;BME280;44634;54.110;12.138;2022-11-20T00:25:36;100592.75;;;5.23;100.00
16481;BME280;44634;54.110;12.138;2022-11-20T00:28:04;100610.63;;;5.54;100.00
16481;BME280;44634;54.110;12.138;2022-11-20T00:30:33;100635.69;;;5.58;100.00
16481;BME280;44634;54.110;12.138;2022-11-20T00:33:01;100644.63;;;5.56;100.00
16481;BME280;44634;54.110;12.138;2022-11-20T00:35:29;100646.53;;;5.41;100.00
16481;BME280;44634;54.110;12.138;2022-11-20T00:37:57;100633.94;;;5.33;100.00
16481;BME280;44634;54.110;12.138;2022-11-20T00:40:25;100619.97;;;5.46;100.00
16481;BME280;44634;54.110;12.138;2022-11-20T00:42:52;100618.81;;;5.86;100.00
16481;BME280;44634;54.110;12.138;2022-11-20T00:45:20;100627.47;;;5.76;100.00
16481;BME280;44634;54.110;12.138;2022-11-20T00:47:49;100636.16;;;5.27;100.00
16481;BME280;44634;54.110;12.138;2022-11-20T00:50:17;100618.97;;;5.35;100.00
16481;BME280;44634;54.110;12.138;2022-11-20T00:52:44;100614.94;;;5.55;100.00
16481;BME280;44634;54.110;12.138;2022-11-20T00:55:12;100618.38;;;5.68;100.00
16481;BME280;44634;54.110;12.138;2022-11-20T00:57:40;100627.09;;;5.44;100.00
16481;BME280;44634;54.110;12.138;2022-11-20T01:00:09;100617.06;;;5.74;100.00
16481;BME280;44634;54.110;12.138;2022-11-20T01:02:36;100620.81;;;5.33;100.00
16481;BME280;44634;54.110;12.138;2022-11-20T01:05:06;100608.38;;;5.74;100.00
16481;BME280;44634;54.110;12.138;2022-11-20T01:07:34;100617.31;;;5.58;100.00
16481;BME280;44634;54.110;12.138;2022-11-20T01:10:02;100639.38;;;5.56;100.00
16481;BME280;44634;54.110;12.138;2022-11-20T01:12:30;100645.56;;;5.55;100.00
16481;BME280;44634;54.110;12.138;2022-11-20T01:14:58;100643.03;;;5.66;100.00
16481;BME280;44634;54.110;12.138;2022-11-20T01:17:25;100645.28;;;5.96;100.00
16481;BME280;44634;54.110;12.138;2022-11-20T01:19:53;100657.22;;;5.25;100.00
16481;BME280;44634;54.110;12.138;2022-11-20T01:22:22;100643.72;;;5.81;100.00
16481;BME280;44634;54.110;12.138;2022-11-20T01:24:50;100637.19;;;5.86;100.00
16481;BME280;44634;54.110;12.138;2022-11-20T01:27:18;100658.09;;;5.75;100.00
16481;BME280;44634;54.110;12.138;2022-11-20T01:29:45;100662.13;;;5.04;100.00
16481;BME280;44634;54.110;12.138;2022-11-20T01:32:13;100631.25;;;5.10;100.00
16481;BME280;44634;54.110;12.138;2022-11-20T01:34:41;100616.59;;;5.56;100.00
16481;BME280;44634;54.110;12.138;2022-11-20T01:37:09;100654.31;;;5.92;100.00
16481;BME280;44634;54.110;12.138;2022-11-20T01:39:38;100661.88;;;5.96;100.00
16481;BME280;44634;54.110;12.138;2022-11-20T01:42:07;100677.03;;;5.55;100.00
16481;BME280;44634;54.110;12.138;2022-11-20T01:44:54;100656.38;;;5.37;100.00
16481;BME280;44634;54.110;12.138;2022-11-20T01:47:29;100621.03;;;5.18;100.00
16481;BME280;44634;54.110;12.138;2022-11-20T01:50:04;100602.69;;;5.30;100.00
16481;BME280;44634;54.110;12.138;2022-11-20T01:52:36;100596.44;;;5.70;100.00
16481;BME280;44634;54.110;12.138;2022-11-20T01:55:09;100593.13;;;5.42;100.00
16481;BME280;44634;54.110;12.138;2022-11-20T01:57:39;100600.91;;;5.31;100.00
16481;BME280;44634;54.110;12.138;2022-11-20T02:00:10;100584.81;;;5.48;100.00
16481;BME280;44634;54.110;12.138;2022-11-20T02:02:40;100582.97;;;5.37;100.00
16481;BME280;44634;54.110;12.138;2022-11-20T02:05:16;100607.44;;;5.62;100.00
16481;BME280;44634;54.110;12.138;2022-11-20T02:07:46;100614.59;;;5.60;100.00
16481;BME280;44634;54.110;12.138;2022-11-20T02:10:16;100617.19;;;5.73;100.00
16481;BME280;44634;54.110;12.138;2022-11-20T02:12:44;100631.03;;;5.75;100.00
16481;BME280;44634;54.110;12.138;2022-11-20T02:15:40;100633.69;;;5.62;100.00
16481;BME280;44634;54.110;12.138;2022-11-20T02:18:09;100641.97;;;5.68;100.00
16481;BME280;44634;54.110;12.138;2022-11-20T02:20:38;100654.13;;;5.70;100.00
16481;BME280;44634;54.110;12.138;2022-11-20T02:23:12;100639.88;;;5.61;100.00
16481;BME280;44634;54.110;12.138;2022-11-20T02:25:43;100646.31;;;5.44;100.00
16481;BME280;44634;54.110;12.138;2022-11-20T02:28:12;100627.22;;;5.42;100.00
16481;BME280;44634;54.110;12.138;2022-11-20T02:30:40;100633.75;;;5.36;100.00
16481;BME280;44634;54.110;12.138;2022-11-20T02:33:08;100658.28;;;5.23;100.00
16481;BME280;44634;54.110;12.138;2022-11-20T02:35:42;100622.09;;;5.28;100.00
16481;BME280;44634;54.110;12.138;2022-11-20T02:38:10;100631.34;;;5.83;100.00
16481;BME280;44634;54.110;12.138;2022-11-20T02:40:38;100648.78;;;5.71;100.00
16481;BME280;44634;54.110;12.138;2022-11-20T02:43:07;100643.47;;;5.47;100.00
16481;BME280;44634;54.110;12.138;2022-11-20T02:45:36;100627.84;;;5.46;100.00
16481;BME280;44634;54.110;12.138;2022-11-20T02:48:05;100640.19;;;5.56;100.00
16481;BME280;44634;54.110;12.138;2022-11-20T02:50:35;100641.88;;;5.57;100.00
16481;BME280;44634;54.110;12.138;2022-11-20T02:53:03;100645.44;;;5.69;100.00
16481;BME280;44634;54.110;12.138;2022-11-20T02:55:31;100648.09;;;5.18;100.00
16481;BME280;44634;54.110;12.138;2022-11-20T02:57:58;100652.22;;;5.22;100.00
16481;BME280;44634;54.110;12.138;2022-11-20T03:00:29;100645.66;;;5.53;100.00
16481;BME280;44634;54.110;12.138;2022-11-20T03:02:56;100644.00;;;5.52;100.00
16481;BME280;44634;54.110;12.138;2022-11-20T03:05:24;100661.28;;;5.55;100.00
16481;BME280;44634;54.110;12.138;2022-11-20T03:07:52;100672.06;;;5.76;100.00
16481;BME280;44634;54.110;12.138;2022-11-20T03:10:20;100689.47;;;5.64;100.00
16481;BME280;44634;54.110;12.138;2022-11-20T03:12:47;100684.47;;;5.48;100.00
16481;BME280;44634;54.110;12.138;2022-11-20T03:15:19;100688.25;;;5.57;100.00
16481;BME280;44634;54.110;12.138;2022-11-20T03:17:49;100651.97;;;5.38;100.00
16481;BME280;44634;54.110;12.138;2022-11-20T03:20:20;100611.28;;;5.20;100.00
16481;BME280;44634;54.110;12.138;2022-11-20T03:22:47;100553.78;;;4.93;100.00
16481;BME280;44634;54.110;12.138;2022-11-20T03:25:15;100534.81;;;5.51;100.00
16481;BME280;44634;54.110;12.138;2022-11-20T03:27:43;100532.78;;;5.55;100.00
16481;BME280;44634;54.110;12.138;2022-11-20T03:30:11;100533.59;;;5.31;100.00
16481;BME280;44634;54.110;12.138;2022-11-20T03:32:39;100513.03;;;5.38;100.00
16481;BME280;44634;54.110;12.138;2022-11-20T03:35:09;100503.13;;;5.54;100.00
16481;BME280;44634;54.110;12.138;2022-11-20T03:37:37;100509.28;;;5.29;100.00
16481;BME280;44634;54.110;12.138;2022-11-20T03:40:06;100480.97;;;4.72;100.00
16481;BME280;44634;54.110;12.138;2022-11-20T03:42:34;100458.13;;;4.87;100.00
16481;BME280;44634;54.110;12.138;2022-11-20T03:45:15;100448.59;;;4.86;100.00
16481;BME280;44634;54.110;12.138;2022-11-20T03:47:44;100444.13;;;4.25;100.00
16481;BME280;44634;54.110;12.138;2022-11-20T03:50:13;100417.72;;;4.78;100.00
16481;BME280;44634;54.110;12.138;2022-11-20T03:52:42;100418.31;;;4.82;100.00
16481;BME280;44634;54.110;12.138;2022-11-20T03:55:09;100443.09;;;4.53;100.00
16481;BME280;44634;54.110;12.138;2022-11-20T03:57:37;100432.22;;;4.95;100.00
16481;BME280;44634;54.110;12.138;2022-11-20T04:00:06;100434.22;;;5.28;100.00
16481;BME280;44634;54.110;12.138;2022-11-20T04:02:34;100453.78;;;4.99;100.00
16481;BME280;44634;54.110;12.138;2022-11-20T04:05:01;100452.59;;;5.16;100.00
16481;BME280;44634;54.110;12.138;2022-11-20T04:07:30;100465.06;;;5.25;100.00
16481;BME280;44634;54.110;12.138;2022-11-20T04:09:58;100487.19;;;5.21;100.00
16481;BME280;44634;54.110;12.138;2022-11-20T04:12:26;100481.72;;;5.24;100.00
16481;BME280;44634;54.110;12.138;2022-11-20T04:14:54;100471.19;;;5.00;100.00
16481;BME280;44634;54.110;12.138;2022-11-20T04:17:21;100452.66;;;4.90;100.00
16481;BME280;44634;54.110;12.138;2022-11-20T04:19:49;100442.03;;;4.68;100.00
16481;BME280;44634;54.110;12.138;2022-11-20T04:22:17;100422.53;;;4.59;100.00
16481;BME280;44634;54.110;12.138;2022-11-20T04:24:46;100409.75;;;4.80;100.00
16481;BME280;44634;54.110;12.138;2022-11-20T04:27:14;100413.41;;;4.77;100.00
16481;BME280;44634;54.110;12.138;2022-11-20T04:29:42;100415.41;;;4.74;100.00
16481;BME280;44634;54.110;12.138;2022-11-20T04:32:09;100412.78;;;4.74;100.00
16481;BME280;44634;54.110;12.138;2022-11-20T04:34:37;100419.41;;;5.03;100.00
16481;BME280;44634;54.110;12.138;2022-11-20T04:37:05;100432.47;;;4.80;100.00
16481;BME280;44634;54.110;12.138;2022-11-20T04:39:33;100422.75;;;5.05;100.00
16481;BME280;44634;54.110;12.138;2022-11-20T04:42:02;100428.78;;;4.95;100.00
16481;BME280;44634;54.110;12.138;2022-11-20T04:44:55;100427.50;;;4.88;100.00
16481;BME280;44634;54.110;12.138;2022-11-20T04:47:23;100422.63;;;4.83;100.00
16481;BME280;44634;54.110;12.138;2022-11-20T04:49:51;100429.66;;;4.70;100.00
16481;BME280;44634;54.110;12.138;2022-11-20T04:52:19;100420.56;;;4.99;100.00
16481;BME280;44634;54.110;12.138;2022-11-20T04:54:47;100421.34;;;4.89;100.00
16481;BME280;44634;54.110;12.138;2022-11-20T04:57:16;100425.78;;;4.63;100.00
16481;BME280;44634;54.110;12.138;2022-11-20T04:59:43;100417.13;;;4.11;100.00
16481;BME280;44634;54.110;12.138;2022-11-20T05:02:11;100407.47;;;3.86;100.00
16481;BME280;44634;54.110;12.138;2022-11-20T05:04:39;100398.94;;;4.10;100.00
16481;BME280;44634;54.110;12.138;2022-11-20T05:07:07;100398.09;;;4.35;100.00
16481;BME280;44634;54.110;12.138;2022-11-20T05:09:35;100393.47;;;4.38;100.00
16481;BME280;44634;54.110;12.138;2022-11-20T05:12:03;100393.16;;;4.05;100.00
16481;BME280;44634;54.110;12.138;2022-11-20T05:14:32;100394.31;;;4.26;100.00
16481;BME280;44634;54.110;12.138;2022-11-20T05:17:00;100395.25;;;4.00;100.00
16481;BME280;44634;54.110;12.138;2022-11-20T05:19:27;100399.53;;;3.88;100.00
16481;BME280;44634;54.110;12.138;2022-11-20T05:21:55;100388.03;;;4.29;100.00
16481;BME280;44634;54.110;12.138;2022-11-20T05:24:23;100381.94;;;4.41;100.00
16481;BME280;44634;54.110;12.138;2022-11-20T05:26:50;100378.09;;;4.21;100.00
16481;BME280;44634;54.110;12.138;2022-11-20T05:29:18;100381.78;;;4.06;100.00
16481;BME280;44634;54.110;12.138;2022-11-20T05:31:48;100379.97;;;4.19;100.00
16481;BME280;44634;54.110;12.138;2022-11-20T05:34:15;100379.66;;;4.24;100.00
16481;BME280;44634;54.110;12.138;2022-11-20T05:36:43;100378.31;;;4.05;100.00
16481;BME280;44634;54.110;12.138;2022-11-20T05:39:11;100377.78;;;4.13;100.00
16481;BME280;44634;54.110;12.138;2022-11-20T05:41:38;100373.25;;;4.40;100.00
16481;BME280;44634;54.110;12.138;2022-11-20T05:44:06;100374.22;;;4.27;100.00
16481;BME280;44634;54.110;12.138;2022-11-20T05:46:34;100372.09;;;4.19;100.00
16481;BME280;44634;54.110;12.138;2022-11-20T05:49:03;100373.69;;;3.96;100.00
16481;BME280;44634;54.110;12.138;2022-11-20T05:51:31;100371.94;;;4.09;100.00
16481;BME280;44634;54.110;12.138;2022-11-20T05:53:59;100362.38;;;4.34;100.00
16481;BME280;44634;54.110;12.138;2022-11-20T05:56:26;100359.13;;;4.17;100.00
16481;BME280;44634;54.110;12.138;2022-11-20T05:58:54;100353.50;;;3.98;100.00
16481;BME280;44634;54.110;12.138;2022-11-20T06:01:24;100353.50;;;4.11;100.00
16481;BME280;44634;54.110;12.138;2022-11-20T06:03:53;100356.22;;;4.22;100.00
16481;BME280;44634;54.110;12.138;2022-11-20T06:06:23;100350.38;;;3.80;100.00
16481;BME280;44634;54.110;12.138;2022-11-20T06:08:51;100361.25;;;3.87;100.00
16481;BME280;44634;54.110;12.138;2022-11-20T06:11:19;100366.97;;;3.67;100.00
16481;BME280;44634;54.110;12.138;2022-11-20T06:13:47;100364.28;;;3.94;100.00
16481;BME280;44634;54.110;12.138;2022-11-20T06:16:16;100356.31;;;3.82;100.00
16481;BME280;44634;54.110;12.138;2022-11-20T06:18:45;100345.84;;;3.70;100.00
16481;BME280;44634;54.110;12.138;2022-11-20T06:21:15;100368.06;;;3.77;100.00
16481;BME280;44634;54.110;12.138;2022-11-20T06:23:44;100372.53;;;4.00;100.00
16481;BME280;44634;54.110;12.138;2022-11-20T06:26:14;100361.13;;;4.01;100.00
16481;BME280;44634;54.110;12.138;2022-11-20T06:28:42;100352.88;;;4.07;100.00
16481;BME280;44634;54.110;12.138;2022-11-20T06:31:11;100354.13;;;3.89;100.00
16481;BME280;44634;54.110;12.138;2022-11-20T06:33:39;100356.56;;;3.92;100.00
16481;BME280;44634;54.110;12.138;2022-11-20T06:36:09;100370.56;;;3.78;100.00
16481;BME280;44634;54.110;12.138;2022-11-20T06:38:37;100371.75;;;3.60;100.00
16481;BME280;44634;54.110;12.138;2022-11-20T06:41:10;100377.97;;;3.32;100.00
16481;BME280;44634;54.110;12.138;2022-11-20T06:43:39;100409.03;;;3.64;100.00
16481;BME280;44634;54.110;12.138;2022-11-20T06:46:06;100405.16;;;3.69;100.00
16481;BME280;44634;54.110;12.138;2022-11-20T06:48:34;100406.50;;;3.75;100.00
16481;BME280;44634;54.110;12.138;2022-11-20T06:51:02;100431.56;;;3.25;100.00
16481;BME280;44634;54.110;12.138;2022-11-20T06:53:30;100475.63;;;3.44;100.00
16481;BME280;44634;54.110;12.138;2022-11-20T06:55:58;100455.81;;;3.54;100.00
16481;BME280;44634;54.110;12.138;2022-11-20T06:58:28;100468.16;;;3.52;100.00
16481;BME280;44634;54.110;12.138;2022-11-20T07:00:58;100462.34;;;3.74;100.00
16481;BME280;44634;54.110;12.138;2022-11-20T07:03:26;100438.94;;;3.72;100.00
16481;BME280;44634;54.110;12.138;2022-11-20T07:05:55;100429.56;;;3.95;100.00
16481;BME280;44634;54.110;12.138;2022-11-20T07:08:24;100392.31;;;4.04;100.00
16481;BME280;44634;54.110;12.138;2022-11-20T07:10:52;100371.50;;;4.15;100.00
16481;BME280;44634;54.110;12.138;2022-11-20T07:13:19;100371.91;;;3.97;100.00
16481;BME280;44634;54.110;12.138;2022-11-20T07:15:48;100374.19;;;3.88;100.00
16481;BME280;44634;54.110;12.138;2022-11-20T07:18:16;100389.19;;;3.99;100.00
16481;BME280;44634;54.110;12.138;2022-11-20T07:20:44;100390.91;;;3.61;100.00
16481;BME280;44634;54.110;12.138;2022-11-20T07:23:12;100391.25;;;3.69;100.00
16481;BME280;44634;54.110;12.138;2022-11-20T07:25:39;100398.19;;;3.95;100.00
16481;BME280;44634;54.110;12.138;2022-11-20T07:28:07;100385.63;;;4.00;100.00
16481;BME280;44634;54.110;12.138;2022-11-20T07:30:37;100370.88;;;3.99;100.00
16481;BME280;44634;54.110;12.138;2022-11-20T07:33:06;100362.63;;;4.05;100.00
16481;BME280;44634;54.110;12.138;2022-11-20T07:35:34;100361.13;;;3.88;100.00
16481;BME280;44634;54.110;12.138;2022-11-20T07:38:02;100391.25;;;3.69;100.00
16481;BME280;44634;54.110;12.138;2022-11-20T07:40:30;100422.88;;;3.91;100.00
16481;BME280;44634;54.110;12.138;2022-11-20T07:42:57;100432.88;;;3.72;100.00
16481;BME280;44634;54.110;12.138;2022-11-20T07:45:25;100702.41;;;5.54;100.00
16481;BME280;44634;54.110;12.138;2022-11-20T07:47:53;100715.50;;;6.77;100.00
16481;BME280;44634;54.110;12.138;2022-11-20T07:50:22;100565.72;;;5.59;100.00
16481;BME280;44634;54.110;12.138;2022-11-20T07:52:50;100440.91;;;5.08;100.00
16481;BME280;44634;54.110;12.138;2022-11-20T07:55:18;100377.44;;;4.43;100.00
16481;BME280;44634;54.110;12.138;2022-11-20T07:57:46;100412.41;;;3.91;100.00
16481;BME280;44634;54.110;12.138;2022-11-20T08:00:21;100431.75;;;3.88;100.00
16481;BME280;44634;54.110;12.138;2022-11-20T08:02:49;100448.84;;;4.07;100.00
16481;BME280;44634;54.110;12.138;2022-11-20T08:05:21;100448.66;;;4.35;100.00
16481;BME280;44634;54.110;12.138;2022-11-20T08:07:49;100408.34;;;4.38;100.00
16481;BME280;44634;54.110;12.138;2022-11-20T08:10:17;100395.88;;;4.16;100.00
16481;BME280;44634;54.110;12.138;2022-11-20T08:12:46;100385.88;;;4.72;100.00
16481;BME280;44634;54.110;12.138;2022-11-20T08:15:31;100354.06;;;4.89;100.00
16481;BME280;44634;54.110;12.138;2022-11-20T08:18:01;100334.59;;;4.57;100.00
16481;BME280;44634;54.110;12.138;2022-11-20T08:20:50;100324.44;;;4.76;100.00
16481;BME280;44634;54.110;12.138;2022-11-20T08:23:19;100322.06;;;4.49;100.00
16481;BME280;44634;54.110;12.138;2022-11-20T08:25:49;100343.31;;;5.05;100.00
16481;BME280;44634;54.110;12.138;2022-11-20T08:28:18;100317.97;;;5.41;100.00
16481;BME280;44634;54.110;12.138;2022-11-20T08:30:48;100287.47;;;5.40;100.00
16481;BME280;44634;54.110;12.138;2022-11-20T08:33:18;100288.13;;;5.30;100.00
16481;BME280;44634;54.110;12.138;2022-11-20T08:35:50;100285.84;;;5.72;100.00
16481;BME280;44634;54.110;12.138;2022-11-20T08:38:18;100269.25;;;5.60;100.00
16481;BME280;44634;54.110;12.138;2022-11-20T08:40:45;100275.13;;;5.86;100.00
16481;BME280;44634;54.110;12.138;2022-11-20T08:43:33;100285.66;;;5.97;100.00
16481;BME280;44634;54.110;12.138;2022-11-20T08:46:01;100297.56;;;5.79;100.00
16481;BME280;44634;54.110;12.138;2022-11-20T08:48:29;100294.84;;;6.03;100.00
16481;BME280;44634;54.110;12.138;2022-11-20T08:50:59;100312.00;;;6.07;100.00
16481;BME280;44634;54.110;12.138;2022-11-20T08:53:29;100319.34;;;6.80;100.00
16481;BME280;44634;54.110;12.138;2022-11-20T08:55:56;100375.25;;;6.71;100.00
16481;BME280;44634;54.110;12.138;2022-11-20T08:58:25;100386.59;;;6.72;100.00
16481;BME280;44634;54.110;12.138;2022-11-20T09:00:53;100380.84;;;6.78;100.00
16481;BME280;44634;54.110;12.138;2022-11-20T09:03:21;100383.97;;;6.27;100.00
16481;BME280;44634;54.110;12.138;2022-11-20T09:05:58;100355.22;;;5.68;100.00
16481;BME280;44634;54.110;12.138;2022-11-20T09:08:27;100358.06;;;5.30;100.00
16481;BME280;44634;54.110;12.138;2022-11-20T09:10:56;100348.88;;;5.94;100.00
16481;BME280;44634;54.110;12.138;2022-11-20T09:13:26;100351.47;;;4.40;100.00
16481;BME280;44634;54.110;12.138;2022-11-20T09:15:54;100345.63;;;4.73;100.00
16481;BME280;44634;54.110;12.138;2022-11-20T09:18:23;100360.00;;;4.67;100.00
16481;BME280;44634;54.110;12.138;2022-11-20T09:20:51;100349.66;;;4.90;100.00
16481;BME280;44634;54.110;12.138;2022-11-20T09:23:20;100354.63;;;5.05;100.00
16481;BME280;44634;54.110;12.138;2022-11-20T09:25:48;100355.44;;;5.06;100.00
16481;BME280;44634;54.110;12.138;2022-11-20T09:28:15;100341.31;;;4.85;100.00
16481;BME280;44634;54.110;12.138;2022-11-20T09:30:44;100338.44;;;4.64;100.00
16481;BME280;44634;54.110;12.138;2022-11-20T09:33:12;100328.66;;;5.02;100.00
16481;BME280;44634;54.110;12.138;2022-11-20T09:35:40;100325.47;;;5.80;100.00
16481;BME280;44634;54.110;12.138;2022-11-20T09:38:08;100309.00;;;5.32;100.00
16481;BME280;44634;54.110;12.138;2022-11-20T09:40:40;100301.31;;;5.64;100.00
16481;BME280;44634;54.110;12.138;2022-11-20T09:43:15;100314.13;;;5.33;100.00
16481;BME280;44634;54.110;12.138;2022-11-20T09:45:56;100312.13;;;4.78;100.00
16481;BME280;44634;54.110;12.138;2022-11-20T09:48:39;100314.75;;;5.13;100.00
16481;BME280;44634;54.110;12.138;2022-11-20T09:51:20;100308.56;;;5.49;100.00
16481;BME280;44634;54.110;12.138;2022-11-20T09:53:59;100308.72;;;5.59;100.00
16481;BME280;44634;54.110;12.138;2022-11-20T09:56:37;100321.56;;;5.51;100.00
16481;BME280;44634;54.110;12.138;2022-11-20T09:59:07;100317.81;;;5.88;100.00
16481;BME280;44634;54.110;12.138;2022-11-20T10:01:41;100350.28;;;7.20;100.00
16481;BME280;44634;54.110;12.138;2022-11-20T10:04:15;100419.59;;;8.46;100.00
16481;BME280;44634;54.110;12.138;2022-11-20T10:06:49;100488.97;;;8.35;100.00
16481;BME280;44634;54.110;12.138;2022-11-20T10:09:40;100496.22;;;7.26;100.00
16481;BME280;44634;54.110;12.138;2022-11-20T10:12:18;100460.63;;;6.54;100.00
16481;BME280;44634;54.110;12.138;2022-11-20T10:15:00;100459.91;;;5.71;100.00
16481;BME280;44634;54.110;12.138;2022-11-20T10:17:46;100391.41;;;5.87;100.00
16481;BME280;44634;54.110;12.138;2022-11-20T10:20:25;100366.75;;;5.54;100.00
16481;BME280;44634;54.110;12.138;2022-11-20T10:23:11;100363.72;;;5.83;100.00
16481;BME280;44634;54.110;12.138;2022-11-20T10:25:55;100355.66;;;5.51;100.00
16481;BME280;44634;54.110;12.138;2022-11-20T10:28:38;100344.44;;;5.49;100.00
16481;BME280;44634;54.110;12.138;2022-11-20T10:31:27;100334.53;;;5.41;100.00
16481;BME280;44634;54.110;12.138;2022-11-20T10:33:57;100325.78;;;5.76;100.00
16481;BME280;44634;54.110;12.138;2022-11-20T10:36:42;100329.25;;;5.06;100.00
16481;BME280;44634;54.110;12.138;2022-11-20T10:39:17;100324.19;;;4.92;100.00
16481;BME280;44634;54.110;12.138;2022-11-20T10:41:49;100321.84;;;5.00;100.00
16481;BME280;44634;54.110;12.138;2022-11-20T10:44:21;100306.28;;;5.91;100.00
16481;BME280;44634;54.110;12.138;2022-11-20T10:47:13;100300.78;;;6.05;100.00
16481;BME280;44634;54.110;12.138;2022-11-20T10:49:46;100288.59;;;6.92;100.00
16481;BME280;44634;54.110;12.138;2022-11-20T10:52:19;100314.75;;;6.28;100.00
16481;BME280;44634;54.110;12.138;2022-11-20T10:54:58;100302.94;;;6.34;100.00
16481;BME280;44634;54.110;12.138;2022-11-20T10:57:39;100305.34;;;6.03;100.00
16481;BME280;44634;54.110;12.138;2022-11-20T11:00:14;100302.06;;;5.66;100.00
16481;BME280;44634;54.110;12.138;2022-11-20T11:02:46;100302.13;;;5.07;100.00
16481;BME280;44634;54.110;12.138;2022-11-20T11:05:26;100317.78;;;4.96;100.00
16481;BME280;44634;54.110;12.138;2022-11-20T11:07:58;100309.00;;;5.32;100.00
16481;BME280;44634;54.110;12.138;2022-11-20T11:10:32;100315.63;;;5.60;100.00
16481;BME280;44634;54.110;12.138;2022-11-20T11:13:03;100328.66;;;5.73;100.00
16481;BME280;44634;54.110;12.138;2022-11-20T11:15:39;100339.47;;;6.37;100.00
16481;BME280;44634;54.110;12.138;2022-11-20T11:18:09;100365.59;;;6.16;100.00
16481;BME280;44634;54.110;12.138;2022-11-20T11:20:38;100357.00;;;6.14;100.00
16481;BME280;44634;54.110;12.138;2022-11-20T11:23:26;100359.75;;;6.57;100.00
16481;BME280;44634;54.110;12.138;2022-11-20T11:25:58;100389.78;;;7.41;100.00
16481;BME280;44634;54.110;12.138;2022-11-20T11:28:27;100454.78;;;6.51;100.00
16481;BME280;44634;54.110;12.138;2022-11-20T11:30:56;100415.56;;;6.93;100.00
16481;BME280;44634;54.110;12.138;2022-11-20T11:33:25;100467.50;;;7.23;100.00
16481;BME280;44634;54.110;12.138;2022-11-20T11:35:54;100435.16;;;5.86;100.00
16481;BME280;44634;54.110;12.138;2022-11-20T11:38:29;100447.00;;;6.49;100.00
16481;BME280;44634;54.110;12.138;2022-11-20T11:40:58;100463.28;;;5.97;100.00
16481;BME280;44634;54.110;12.138;2022-11-20T11:43:29;100412.75;;;6.51;100.00
16481;BME280;44634;54.110;12.138;2022-11-20T11:46:25;100467.88;;;7.07;100.00
16481;BME280;44634;54.110;12.138;2022-11-20T11:48:56;100499.81;;;7.13;100.00
16481;BME280;44634;54.110;12.138;2022-11-20T11:51:27;100511.09;;;6.01;100.00
16481;BME280;44634;54.110;12.138;2022-11-20T11:56:38;100436.72;;;5.89;100.00
16481;BME280;44634;54.110;12.138;2022-11-20T12:20:38;100436.13;;;6.32;100.00
16481;BME280;44634;54.110;12.138;2022-11-20T12:23:10;100466.03;;;6.07;100.00
16481;BME280;44634;54.110;12.138;2022-11-20T12:25:43;100404.38;;;6.35;100.00
16481;BME280;44634;54.110;12.138;2022-11-20T12:28:26;100389.97;;;6.40;100.00
16481;BME280;44634;54.110;12.138;2022-11-20T12:31:11;100445.38;;;8.82;100.00
16481;BME280;44634;54.110;12.138;2022-11-20T12:33:53;100541.50;;;8.99;100.00
16481;BME280;44634;54.110;12.138;2022-11-20T12:36:32;100558.09;;;8.27;100.00
16481;BME280;44634;54.110;12.138;2022-11-20T12:39:17;100520.50;;;8.25;100.00
16481;BME280;44634;54.110;12.138;2022-11-20T12:42:01;100527.75;;;6.92;100.00
16481;BME280;44634;54.110;12.138;2022-11-20T12:45:05;100469.75;;;6.15;100.00
16481;BME280;44634;54.110;12.138;2022-11-20T12:47:59;100446.28;;;6.25;100.00
16481;BME280;44634;54.110;12.138;2022-11-20T12:50:37;100423.59;;;5.89;100.00
16481;BME280;44634;54.110;12.138;2022-11-20T12:53:33;100396.50;;;5.77;100.00
16481;BME280;44634;54.110;12.138;2022-11-20T12:56:14;100363.16;;;4.96;100.00
16481;BME280;44634;54.110;12.138;2022-11-20T12:58:50;100335.78;;;5.24;100.00
16481;BME280;44634;54.110;12.138;2022-11-20T13:01:24;100315.59;;;4.29;100.00
16481;BME280;44634;54.110;12.138;2022-11-20T13:04:15;100320.06;;;4.76;100.00
16481;BME280;44634;54.110;12.138;2022-11-20T13:06:44;100316.53;;;4.15;100.00
16481;BME280;44634;54.110;12.138;2022-11-20T13:09:15;100322.22;;;3.71;100.00
16481;BME280;44634;54.110;12.138;2022-11-20T13:11:47;100365.69;;;3.59;100.00
16481;BME280;44634;54.110;12.138;2022-11-20T13:14:26;100405.81;;;3.85;100.00
16481;BME280;44634;54.110;12.138;2022-11-20T13:17:00;100394.97;;;3.52;100.00
16481;BME280;44634;54.110;12.138;2022-11-20T13:19:32;100396.38;;;3.83;100.00
16481;BME280;44634;54.110;12.138;2022-11-20T13:22:00;100418.34;;;3.41;100.00
16481;BME280;44634;54.110;12.138;2022-11-20T13:24:31;100461.84;;;3.42;100.00